sensor_id;sensor_type;location;lat;lon;timestamp;pressure;altitude;pressure_sealevel;temperature;humidity
77739;BME280;66904;59.926;30.404;2023-05-29T00:00:25;101435.56;;;25.14;33.56
77739;BME280;66904;59.926;30.404;2023-05-29T00:05:26;101427.53;;;25.06;33.62
77739;BME280;66904;59.926;30.404;2023-05-29T00:10:27;101425.75;;;25.13;33.52
77739;BME280;66904;59.926;30.404;2023-05-29T00:15:28;101424.91;;;25.13;33.55
77739;BME280;66904;59.926;30.404;2023-05-29T00:20:28;101435.09;;;25.11;33.76
77739;BME280;66904;59.926;30.404;2023-05-29T00:25:30;101434.91;;;25.12;33.46
77739;BME280;66904;59.926;30.404;2023-05-29T00:30:30;101436.78;;;25.12;33.62
77739;BME280;66904;59.926;30.404;2023-05-29T00:35:31;101430.72;;;25.10;32.93
77739;BME280;66904;59.926;30.404;2023-05-29T00:40:31;101427.16;;;25.09;33.43
77739;BME280;66904;59.926;30.404;2023-05-29T00:45:32;101428.38;;;25.07;33.26
77739;BME280;66904;59.926;30.404;2023-05-29T00:50:36;101436.97;;;25.10;33.67
77739;BME280;66904;59.926;30.404;2023-05-29T00:55:37;101438.81;;;25.10;33.65
77739;BME280;66904;59.926;30.404;2023-05-29T01:00:38;101437.34;;;25.07;33.67
77739;BME280;66904;59.926;30.404;2023-05-29T01:05:39;101436.31;;;25.08;33.48
77739;BME280;66904;59.926;30.404;2023-05-29T01:10:40;101432.78;;;25.08;33.50
77739;BME280;66904;59.926;30.404;2023-05-29T01:15:55;101427.16;;;25.09;33.48
77739;BME280;66904;59.926;30.404;2023-05-29T01:26:41;101432.41;;;25.11;33.44
77739;BME280;66904;59.926;30.404;2023-05-29T01:31:46;101424.84;;;25.06;33.58
77739;BME280;66904;59.926;30.404;2023-05-29T01:36:46;101424.19;;;25.04;33.45
77739;BME280;66904;59.926;30.404;2023-05-29T01:41:48;101434.66;;;25.07;33.20
77739;BME280;66904;59.926;30.404;2023-05-29T01:46:49;101419.41;;;25.06;33.48
77739;BME280;66904;59.926;30.404;2023-05-29T01:51:50;101436.50;;;25.07;33.42
77739;BME280;66904;59.926;30.404;2023-05-29T01:56:51;101434.81;;;25.06;33.40
77739;BME280;66904;59.926;30.404;2023-05-29T02:01:51;101432.13;;;25.06;33.33
77739;BME280;66904;59.926;30.404;2023-05-29T02:06:52;101430.84;;;25.02;33.81
77739;BME280;66904;59.926;30.404;2023-05-29T02:11:52;101434.19;;;25.04;33.19
77739;BME280;66904;59.926;30.404;2023-05-29T02:16:53;101440.63;;;25.03;33.36
77739;BME280;66904;59.926;30.404;2023-05-29T02:21:53;101438.13;;;25.01;33.54
77739;BME280;66904;59.926;30.404;2023-05-29T02:26:54;101434.34;;;25.02;33.60
77739;BME280;66904;59.926;30.404;2023-05-29T02:31:54;101440.63;;;25.03;33.54
77739;BME280;66904;59.926;30.404;2023-05-29T02:36:55;101446.03;;;25.03;33.56
77739;BME280;66904;59.926;30.404;2023-05-29T02:41:55;101449.59;;;25.03;33.50
77739;BME280;66904;59.926;30.404;2023-05-29T02:46:56;101444.16;;;25.03;33.26
77739;BME280;66904;59.926;30.404;2023-05-29T02:51:56;101443.53;;;25.01;33.30
77739;BME280;66904;59.926;30.404;2023-05-29T02:56:57;101441.66;;;25.02;33.64
77739;BME280;66904;59.926;30.404;2023-05-29T03:01:58;101439.97;;;25.01;33.81
77739;BME280;66904;59.926;30.404;2023-05-29T03:06:58;101445.19;;;25.02;33.26
77739;BME280;66904;59.926;30.404;2023-05-29T03:11:59;101440.81;;;25.01;33.53
77739;BME280;66904;59.926;30.404;2023-05-29T03:17:04;101435.78;;;24.98;33.43
77739;BME280;66904;59.926;30.404;2023-05-29T03:22:05;101437.28;;;25.01;33.77
77739;BME280;66904;59.926;30.404;2023-05-29T03:27:06;101438.97;;;25.02;33.83
77739;BME280;66904;59.926;30.404;2023-05-29T03:32:06;101438.97;;;25.02;33.57
77739;BME280;66904;59.926;30.404;2023-05-29T03:37:07;101439.13;;;25.00;33.66
77739;BME280;66904;59.926;30.404;2023-05-29T03:42:07;101445.00;;;25.04;34.06
77739;BME280;66904;59.926;30.404;2023-05-29T03:47:08;101434.81;;;25.06;34.12
77739;BME280;66904;59.926;30.404;2023-05-29T03:52:09;101437.19;;;25.09;33.85
77739;BME280;66904;59.926;30.404;2023-05-29T03:57:10;101439.69;;;25.10;34.46
77739;BME280;66904;59.926;30.404;2023-05-29T04:02:10;101439.50;;;25.12;34.22
77739;BME280;66904;59.926;30.404;2023-05-29T04:07:11;101444.31;;;25.16;34.99
77739;BME280;66904;59.926;30.404;2023-05-29T04:12:12;101423.50;;;25.17;35.76
77739;BME280;66904;59.926;30.404;2023-05-29T04:17:13;101435.94;;;25.33;35.93
77739;BME280;66904;59.926;30.404;2023-05-29T04:22:14;101426.34;;;25.30;36.38
77739;BME280;66904;59.926;30.404;2023-05-29T04:27:15;101447.69;;;25.40;36.05
77739;BME280;66904;59.926;30.404;2023-05-29T04:32:15;101434.16;;;25.40;36.73
77739;BME280;66904;59.926;30.404;2023-05-29T04:37:16;101449.38;;;25.41;36.74
77739;BME280;66904;59.926;30.404;2023-05-29T04:42:17;101461.91;;;25.42;36.46
77739;BME280;66904;59.926;30.404;2023-05-29T04:47:19;101459.59;;;25.39;37.03
77739;BME280;66904;59.926;30.404;2023-05-29T04:52:19;101467.72;;;25.39;36.70
77739;BME280;66904;59.926;30.404;2023-05-29T04:57:21;101469.59;;;25.38;36.74
77739;BME280;66904;59.926;30.404;2023-05-29T05:02:21;101469.13;;;25.35;37.00
77739;BME280;66904;59.926;30.404;2023-05-29T05:07:22;101463.72;;;25.35;36.80
77739;BME280;66904;59.926;30.404;2023-05-29T05:12:22;101468.47;;;25.33;36.65
77739;BME280;66904;59.926;30.404;2023-05-29T05:17:23;101464.91;;;25.32;36.60
77739;BME280;66904;59.926;30.404;2023-05-29T05:22:23;101462.19;;;25.32;36.90
77739;BME280;66904;59.926;30.404;2023-05-29T05:27:24;101476.13;;;25.29;36.48
77739;BME280;66904;59.926;30.404;2023-05-29T05:32:24;101472.97;;;25.26;36.43
77739;BME280;66904;59.926;30.404;2023-05-29T05:37:25;101484.19;;;25.23;36.79
77739;BME280;66904;59.926;30.404;2023-05-29T05:42:25;101464.69;;;25.12;36.52
77739;BME280;66904;59.926;30.404;2023-05-29T05:47:26;101480.19;;;25.18;36.70
77739;BME280;66904;59.926;30.404;2023-05-29T05:52:28;101473.47;;;25.14;36.49
77739;BME280;66904;59.926;30.404;2023-05-29T05:57:31;101471.88;;;25.20;36.85
77739;BME280;66904;59.926;30.404;2023-05-29T06:02:35;101473.56;;;25.21;36.68
77739;BME280;66904;59.926;30.404;2023-05-29T06:07:37;101487.09;;;25.21;37.15
77739;BME280;66904;59.926;30.404;2023-05-29T06:12:37;101476.44;;;25.19;36.89
77739;BME280;66904;59.926;30.404;2023-05-29T06:17:38;101470.00;;;25.20;37.10
77739;BME280;66904;59.926;30.404;2023-05-29T06:22:39;101474.78;;;25.18;36.82
77739;BME280;66904;59.926;30.404;2023-05-29T06:27:40;101475.81;;;25.17;37.15
77739;BME280;66904;59.926;30.404;2023-05-29T06:32:41;101478.50;;;25.17;37.07
77739;BME280;66904;59.926;30.404;2023-05-29T06:37:41;101458.84;;;25.09;36.82
77739;BME280;66904;59.926;30.404;2023-05-29T06:42:42;101485.78;;;25.17;37.22
77739;BME280;66904;59.926;30.404;2023-05-29T06:47:45;101481.84;;;25.19;37.12
77739;BME280;66904;59.926;30.404;2023-05-29T06:52:46;101481.94;;;25.26;37.37
77739;BME280;66904;59.926;30.404;2023-05-29T06:57:46;101489.88;;;25.28;37.54
77739;BME280;66904;59.926;30.404;2023-05-29T07:02:47;101493.03;;;25.31;37.05
77739;BME280;66904;59.926;30.404;2023-05-29T07:07:47;101501.25;;;25.38;37.34
77739;BME280;66904;59.926;30.404;2023-05-29T07:12:48;101496.28;;;25.41;37.36
77739;BME280;66904;59.926;30.404;2023-05-29T07:17:48;101499.47;;;25.45;36.96
77739;BME280;66904;59.926;30.404;2023-05-29T07:22:49;101498.22;;;25.47;37.29
77739;BME280;66904;59.926;30.404;2023-05-29T07:27:49;101499.75;;;25.50;37.15
77739;BME280;66904;59.926;30.404;2023-05-29T07:32:51;101485.84;;;25.38;37.16
77739;BME280;66904;59.926;30.404;2023-05-29T07:37:51;101513.47;;;25.48;37.06
77739;BME280;66904;59.926;30.404;2023-05-29T07:42:52;101501.50;;;25.43;37.32
77739;BME280;66904;59.926;30.404;2023-05-29T07:47:53;101516.00;;;25.50;37.22
77739;BME280;66904;59.926;30.404;2023-05-29T07:52:53;101516.00;;;25.50;36.98
77739;BME280;66904;59.926;30.404;2023-05-29T07:57:56;101523.25;;;25.49;37.01
77739;BME280;66904;59.926;30.404;2023-05-29T08:02:56;101518.03;;;25.48;37.18
77739;BME280;66904;59.926;30.404;2023-05-29T08:07:57;101522.16;;;25.44;36.76
77739;BME280;66904;59.926;30.404;2023-05-29T08:12:59;101519.75;;;25.34;36.95
77739;BME280;66904;59.926;30.404;2023-05-29T08:17:59;101528.91;;;25.33;36.59
77739;BME280;66904;59.926;30.404;2023-05-29T08:23:00;101521.78;;;25.32;36.67
77739;BME280;66904;59.926;30.404;2023-05-29T08:28:01;101511.81;;;25.33;36.99
77739;BME280;66904;59.926;30.404;2023-05-29T08:33:01;101530.38;;;25.36;37.15
77739;BME280;66904;59.926;30.404;2023-05-29T08:38:02;101519.53;;;25.36;36.34
77739;BME280;66904;59.926;30.404;2023-05-29T08:43:15;101527.88;;;25.34;36.67
77739;BME280;66904;59.926;30.404;2023-05-29T08:48:18;101531.44;;;25.35;36.64
77739;BME280;66904;59.926;30.404;2023-05-29T08:53:19;101514.44;;;25.26;36.45
77739;BME280;66904;59.926;30.404;2023-05-29T08:58:20;101533.28;;;25.34;36.56
77739;BME280;66904;59.926;30.404;2023-05-29T09:03:23;101511.94;;;25.25;36.22
77739;BME280;66904;59.926;30.404;2023-05-29T09:08:24;101525.34;;;25.33;36.75
77739;BME280;66904;59.926;30.404;2023-05-29T09:13:25;101524.88;;;25.29;36.53
77739;BME280;66904;59.926;30.404;2023-05-29T09:18:32;101528.06;;;25.33;36.01
77739;BME280;66904;59.926;30.404;2023-05-29T09:23:32;101537.03;;;25.33;36.64
77739;BME280;66904;59.926;30.404;2023-05-29T09:28:33;101527.03;;;25.34;36.03
77739;BME280;66904;59.926;30.404;2023-05-29T09:33:33;101523.88;;;25.30;36.35
77739;BME280;66904;59.926;30.404;2023-05-29T09:38:36;101510.72;;;25.27;36.05
77739;BME280;66904;59.926;30.404;2023-05-29T09:43:38;101517.44;;;25.31;36.10
77739;BME280;66904;59.926;30.404;2023-05-29T09:48:39;101525.34;;;25.33;35.78
77739;BME280;66904;59.926;30.404;2023-05-29T09:53:40;101525.56;;;25.31;35.57
77739;BME280;66904;59.926;30.404;2023-05-29T09:58:44;101526.41;;;25.32;35.42
77739;BME280;66904;59.926;30.404;2023-05-29T10:03:48;101523.88;;;25.30;35.47
77739;BME280;66904;59.926;30.404;2023-05-29T10:08:50;101530.97;;;25.31;35.40
77739;BME280;66904;59.926;30.404;2023-05-29T10:13:54;101535.72;;;25.29;35.52
77739;BME280;66904;59.926;30.404;2023-05-29T10:18:57;101537.78;;;25.27;35.30
77739;BME280;66904;59.926;30.404;2023-05-29T10:23:57;101541.06;;;25.23;35.28
77739;BME280;66904;59.926;30.404;2023-05-29T10:29:05;101536.47;;;25.23;34.81
77739;BME280;66904;59.926;30.404;2023-05-29T10:39:23;101551.06;;;25.22;34.86
77739;BME280;66904;59.926;30.404;2023-05-29T10:44:44;101567.13;;;25.24;34.63
77739;BME280;66904;59.926;30.404;2023-05-29T10:49:49;101571.22;;;25.19;34.47
77739;BME280;66904;59.926;30.404;2023-05-29T10:54:52;101569.56;;;25.18;34.32
77739;BME280;66904;59.926;30.404;2023-05-29T11:00:03;101578.50;;;25.19;34.29
77739;BME280;66904;59.926;30.404;2023-05-29T11:11:12;101599.00;;;25.22;34.05
77739;BME280;66904;59.926;30.404;2023-05-29T11:16:35;101595.22;;;25.23;34.01
77739;BME280;66904;59.926;30.404;2023-05-29T11:21:49;101585.25;;;25.23;34.12
77739;BME280;66904;59.926;30.404;2023-05-29T11:26:55;101583.28;;;25.17;34.61
77739;BME280;66904;59.926;30.404;2023-05-29T11:32:04;101601.78;;;25.28;34.08
77739;BME280;66904;59.926;30.404;2023-05-29T11:37:05;101585.53;;;25.28;34.37
77739;BME280;66904;59.926;30.404;2023-05-29T11:42:06;101599.53;;;25.32;34.27
77739;BME280;66904;59.926;30.404;2023-05-29T11:47:08;101598.97;;;25.36;34.23
77739;BME280;66904;59.926;30.404;2023-05-29T11:52:10;101598.41;;;25.41;34.55
77739;BME280;66904;59.926;30.404;2023-05-29T11:57:11;101591.00;;;25.49;34.47
77739;BME280;66904;59.926;30.404;2023-05-29T12:02:11;101580.47;;;25.54;34.68
77739;BME280;66904;59.926;30.404;2023-05-29T12:07:19;101594.28;;;25.59;34.25
77739;BME280;66904;59.926;30.404;2023-05-29T12:12:19;101590.53;;;25.60;34.30
77739;BME280;66904;59.926;30.404;2023-05-29T12:17:20;101585.31;;;25.59;34.41
77739;BME280;66904;59.926;30.404;2023-05-29T12:22:36;101577.25;;;25.65;33.96
77739;BME280;66904;59.926;30.404;2023-05-29T12:27:41;101573.72;;;25.65;33.89
77739;BME280;66904;59.926;30.404;2023-05-29T12:32:44;101591.00;;;25.64;33.78
77739;BME280;66904;59.926;30.404;2023-05-29T12:37:55;101587.84;;;25.60;34.06
77739;BME280;66904;59.926;30.404;2023-05-29T12:43:01;101581.41;;;25.61;33.36
77739;BME280;66904;59.926;30.404;2023-05-29T12:48:04;101593.63;;;25.57;33.53
77739;BME280;66904;59.926;30.404;2023-05-29T12:53:07;101599.06;;;25.57;33.83
77739;BME280;66904;59.926;30.404;2023-05-29T12:58:12;101609.22;;;25.55;33.29
77739;BME280;66904;59.926;30.404;2023-05-29T13:03:13;101608.59;;;25.53;33.68
77739;BME280;66904;59.926;30.404;2023-05-29T13:08:14;101606.53;;;25.41;33.55
77739;BME280;66904;59.926;30.404;2023-05-29T13:13:15;101602.41;;;25.45;33.71
77739;BME280;66904;59.926;30.404;2023-05-29T13:18:15;101618.84;;;25.43;33.32
77739;BME280;66904;59.926;30.404;2023-05-29T13:23:16;101610.94;;;25.42;33.38
77739;BME280;66904;59.926;30.404;2023-05-29T13:28:16;101630.91;;;25.41;33.22
77739;BME280;66904;59.926;30.404;2023-05-29T13:33:17;101624.84;;;25.39;33.20
77739;BME280;66904;59.926;30.404;2023-05-29T13:38:17;101618.75;;;25.37;33.12
77739;BME280;66904;59.926;30.404;2023-05-29T13:43:18;101624.38;;;25.35;33.19
77739;BME280;66904;59.926;30.404;2023-05-29T13:48:18;101617.28;;;25.34;32.76
77739;BME280;66904;59.926;30.404;2023-05-29T13:53:19;101624.38;;;25.35;33.02
77739;BME280;66904;59.926;30.404;2023-05-29T13:58:19;101626.44;;;25.33;33.38
77739;BME280;66904;59.926;30.404;2023-05-29T14:03:20;101634.56;;;25.33;32.63
77739;BME280;66904;59.926;30.404;2023-05-29T14:08:21;101634.56;;;25.33;32.80
77739;BME280;66904;59.926;30.404;2023-05-29T14:13:22;101638.47;;;25.31;32.96
77739;BME280;66904;59.926;30.404;2023-05-29T14:18:23;101643.06;;;25.30;32.55
77739;BME280;66904;59.926;30.404;2023-05-29T14:23:25;101631.59;;;25.28;32.53
77739;BME280;66904;59.926;30.404;2023-05-29T14:28:26;101638.88;;;25.28;32.26
77739;BME280;66904;59.926;30.404;2023-05-29T14:33:26;101635.47;;;25.26;32.13
77739;BME280;66904;59.926;30.404;2023-05-29T14:38:27;101637.38;;;25.25;32.45
77739;BME280;66904;59.926;30.404;2023-05-29T14:43:27;101631.41;;;25.15;32.32
77739;BME280;66904;59.926;30.404;2023-05-29T14:48:28;101622.91;;;25.18;32.34
77739;BME280;66904;59.926;30.404;2023-05-29T14:53:28;101633.34;;;25.21;32.13
77739;BME280;66904;59.926;30.404;2023-05-29T14:58:31;101648.13;;;25.18;31.73
77739;BME280;66904;59.926;30.404;2023-05-29T15:03:32;101647.06;;;25.19;31.84
77739;BME280;66904;59.926;30.404;2023-05-29T15:08:32;101644.72;;;25.16;31.65
77739;BME280;66904;59.926;30.404;2023-05-29T15:13:35;101636.88;;;25.07;31.70
77739;BME280;66904;59.926;30.404;2023-05-29T15:18:35;101638.69;;;25.14;31.59
77739;BME280;66904;59.926;30.404;2023-05-29T15:23:36;101633.53;;;25.19;31.91
77739;BME280;66904;59.926;30.404;2023-05-29T15:28:38;101637.06;;;25.20;31.75
77739;BME280;66904;59.926;30.404;2023-05-29T15:33:39;101644.16;;;25.36;31.61
77739;BME280;66904;59.926;30.404;2023-05-29T15:38:41;101639.69;;;25.43;31.30
77739;BME280;66904;59.926;30.404;2023-05-29T15:43:41;101636.91;;;25.51;31.10
77739;BME280;66904;59.926;30.404;2023-05-29T15:48:42;101637.19;;;25.56;31.31
77739;BME280;66904;59.926;30.404;2023-05-29T15:53:42;101638.22;;;25.55;30.77
77739;BME280;66904;59.926;30.404;2023-05-29T15:58:43;101644.66;;;25.54;30.92
77739;BME280;66904;59.926;30.404;2023-05-29T16:03:43;101640.47;;;25.51;30.69
77739;BME280;66904;59.926;30.404;2023-05-29T16:08:44;101641.63;;;25.49;30.96
77739;BME280;66904;59.926;30.404;2023-05-29T16:13:44;101643.69;;;25.47;30.77
77739;BME280;66904;59.926;30.404;2023-05-29T16:18:46;101643.06;;;25.45;30.82
77739;BME280;66904;59.926;30.404;2023-05-29T16:23:47;101646.97;;;25.42;30.77
77739;BME280;66904;59.926;30.404;2023-05-29T16:28:47;101640.91;;;25.40;30.69
77739;BME280;66904;59.926;30.404;2023-05-29T16:33:48;101643.63;;;25.40;30.86
77739;BME280;66904;59.926;30.404;2023-05-29T16:38:49;101642.78;;;25.40;31.03
77739;BME280;66904;59.926;30.404;2023-05-29T16:43:50;101636.25;;;25.34;30.66
77739;BME280;66904;59.926;30.404;2023-05-29T16:48:51;101646.69;;;25.37;31.04
77739;BME280;66904;59.926;30.404;2023-05-29T16:53:51;101656.69;;;25.37;30.98
77739;BME280;66904;59.926;30.404;2023-05-29T16:58:52;101652.66;;;25.33;30.99
77739;BME280;66904;59.926;30.404;2023-05-29T17:03:52;101648.31;;;25.32;31.10
77739;BME280;66904;59.926;30.404;2023-05-29T17:08:53;101654.91;;;25.29;31.18
77739;BME280;66904;59.926;30.404;2023-05-29T17:13:53;101629.72;;;25.29;31.17
77739;BME280;66904;59.926;30.404;2023-05-29T17:18:54;101646.63;;;25.31;31.29
77739;BME280;66904;59.926;30.404;2023-05-29T17:23:54;101630.72;;;25.28;31.22
77739;BME280;66904;59.926;30.404;2023-05-29T17:28:55;101644.28;;;25.28;31.09
77739;BME280;66904;59.926;30.404;2023-05-29T17:33:56;101644.44;;;25.26;31.54
77739;BME280;66904;59.926;30.404;2023-05-29T17:38:57;101639.03;;;25.26;31.58
77739;BME280;66904;59.926;30.404;2023-05-29T17:43:57;101650.25;;;25.23;31.14
77739;BME280;66904;59.926;30.404;2023-05-29T17:48:58;101644.66;;;25.25;31.29
77739;BME280;66904;59.926;30.404;2023-05-29T17:53:58;101652.09;;;25.23;31.71
77739;BME280;66904;59.926;30.404;2023-05-29T17:58:59;101645.03;;;25.22;31.41
77739;BME280;66904;59.926;30.404;2023-05-29T18:04:00;101646.91;;;25.21;31.56
77739;BME280;66904;59.926;30.404;2023-05-29T18:09:01;101650.81;;;25.18;31.25
77739;BME280;66904;59.926;30.404;2023-05-29T18:14:01;101641.84;;;25.18;31.43
77739;BME280;66904;59.926;30.404;2023-05-29T18:19:02;101652.69;;;25.18;31.41
77739;BME280;66904;59.926;30.404;2023-05-29T18:24:06;101659.97;;;25.17;30.81
77739;BME280;66904;59.926;30.404;2023-05-29T18:29:07;101659.31;;;25.15;31.31
77739;BME280;66904;59.926;30.404;2023-05-29T18:34:08;101656.78;;;25.14;31.23
77739;BME280;66904;59.926;30.404;2023-05-29T18:39:08;101658.28;;;25.16;31.35
77739;BME280;66904;59.926;30.404;2023-05-29T18:44:09;101661.19;;;25.15;31.78
77739;BME280;66904;59.926;30.404;2023-05-29T18:49:09;101654.63;;;25.09;31.81
77739;BME280;66904;59.926;30.404;2023-05-29T18:54:10;101663.03;;;25.14;31.80
77739;BME280;66904;59.926;30.404;2023-05-29T18:59:12;101658.09;;;25.18;32.08
77739;BME280;66904;59.926;30.404;2023-05-29T19:04:14;101663.16;;;25.21;31.71
77739;BME280;66904;59.926;30.404;2023-05-29T19:09:14;101651.84;;;25.17;31.71
77739;BME280;66904;59.926;30.404;2023-05-29T19:14:15;101662.78;;;25.24;31.85
77739;BME280;66904;59.926;30.404;2023-05-29T19:19:17;101647.28;;;25.18;32.09
77739;BME280;66904;59.926;30.404;2023-05-29T19:24:18;101658.00;;;25.26;32.08
77739;BME280;66904;59.926;30.404;2023-05-29T19:29:19;101658.19;;;25.25;32.15
77739;BME280;66904;59.926;30.404;2023-05-29T19:34:20;101666.97;;;25.27;32.29
77739;BME280;66904;59.926;30.404;2023-05-29T19:39:22;101666.13;;;25.26;31.84
77739;BME280;66904;59.926;30.404;2023-05-29T19:44:23;101668.81;;;25.26;32.05
77739;BME280;66904;59.926;30.404;2023-05-29T19:49:23;101676.41;;;25.31;32.17
77739;BME280;66904;59.926;30.404;2023-05-29T19:54:25;101663.63;;;25.25;32.26
77739;BME280;66904;59.926;30.404;2023-05-29T19:59:29;101672.47;;;25.33;32.22
77739;BME280;66904;59.926;30.404;2023-05-29T20:04:31;101660.69;;;25.26;32.06
77739;BME280;66904;59.926;30.404;2023-05-29T20:09:35;101678.91;;;25.32;32.44
77739;BME280;66904;59.926;30.404;2023-05-29T20:14:36;101676.59;;;25.29;32.23
77739;BME280;66904;59.926;30.404;2023-05-29T20:19:37;101677.81;;;25.27;31.98
77739;BME280;66904;59.926;30.404;2023-05-29T20:24:38;101667.34;;;25.24;31.48
77739;BME280;66904;59.926;30.404;2023-05-29T20:29:39;101659.41;;;25.22;31.93
77739;BME280;66904;59.926;30.404;2023-05-29T20:34:39;101670.44;;;25.20;32.37
77739;BME280;66904;59.926;30.404;2023-05-29T20:39:40;101656.50;;;25.24;32.21
77739;BME280;66904;59.926;30.404;2023-05-29T20:44:40;101664.25;;;25.27;32.72
77739;BME280;66904;59.926;30.404;2023-05-29T20:49:41;101663.03;;;25.29;32.72
77739;BME280;66904;59.926;30.404;2023-05-29T20:54:42;101657.91;;;25.34;32.58
77739;BME280;66904;59.926;30.404;2023-05-29T20:59:42;101659.59;;;25.35;32.86
77739;BME280;66904;59.926;30.404;2023-05-29T21:04:43;101657.53;;;25.37;32.66
77739;BME280;66904;59.926;30.404;2023-05-29T21:09:44;101655.84;;;25.36;32.68
77739;BME280;66904;59.926;30.404;2023-05-29T21:14:44;101663.50;;;25.33;32.62
77739;BME280;66904;59.926;30.404;2023-05-29T21:19:45;101653.25;;;25.28;32.67
77739;BME280;66904;59.926;30.404;2023-05-29T21:24:45;101647.84;;;25.28;32.36
77739;BME280;66904;59.926;30.404;2023-05-29T21:29:46;101647.38;;;25.25;32.58
77739;BME280;66904;59.926;30.404;2023-05-29T21:34:47;101659.03;;;25.25;32.36
77739;BME280;66904;59.926;30.404;2023-05-29T21:39:49;101651.09;;;25.24;32.19
77739;BME280;66904;59.926;30.404;2023-05-29T21:44:49;101649.41;;;25.23;32.34
77739;BME280;66904;59.926;30.404;2023-05-29T21:49:50;101647.91;;;25.20;32.49
77739;BME280;66904;59.926;30.404;2023-05-29T21:54:51;101647.28;;;25.18;32.56
77739;BME280;66904;59.926;30.404;2023-05-29T21:59:52;101657.91;;;25.19;32.55
77739;BME280;66904;59.926;30.404;2023-05-29T22:04:52;101645.56;;;25.17;32.27
77739;BME280;66904;59.926;30.404;2023-05-29T22:09:53;101641.19;;;25.16;32.24
77739;BME280;66904;59.926;30.404;2023-05-29T22:14:53;101638.47;;;25.16;32.13
77739;BME280;66904;59.926;30.404;2023-05-29T22:19:54;101629.88;;;25.12;32.45
77739;BME280;66904;59.926;30.404;2023-05-29T22:24:55;101636.97;;;25.13;32.46
77739;BME280;66904;59.926;30.404;2023-05-29T22:29:56;101633.81;;;25.10;32.47
77739;BME280;66904;59.926;30.404;2023-05-29T22:34:57;101631.00;;;25.03;32.08
77739;BME280;66904;59.926;30.404;2023-05-29T22:39:58;101642.13;;;25.08;32.62
77739;BME280;66904;59.926;30.404;2023-05-29T22:44:58;101639.13;;;25.03;32.27
77739;BME280;66904;59.926;30.404;2023-05-29T22:49:59;101628.28;;;25.03;32.33
77739;BME280;66904;59.926;30.404;2023-05-29T22:55:00;101628.66;;;25.00;32.45
77739;BME280;66904;59.926;30.404;2023-05-29T23:00:01;101639.50;;;25.00;32.29
77739;BME280;66904;59.926;30.404;2023-05-29T23:05:09;101629.50;;;25.01;31.96
77739;BME280;66904;59.926;30.404;2023-05-29T23:10:10;101623.25;;;25.00;32.27
77739;BME280;66904;59.926;30.404;2023-05-29T23:15:10;101622.78;;;24.97;32.37
77739;BME280;66904;59.926;30.404;2023-05-29T23:20:12;101621.09;;;24.96;32.28
77739;BME280;66904;59.926;30.404;2023-05-29T23:25:13;101623.63;;;24.97;32.36
77739;BME280;66904;59.926;30.404;2023-05-29T23:30:13;101618.75;;;24.93;31.99
77739;BME280;66904;59.926;30.404;2023-05-29T23:35:14;101616.53;;;24.96;32.36
77739;BME280;66904;59.926;30.404;2023-05-29T23:40:14;101628.19;;;24.97;32.54
77739;BME280;66904;59.926;30.404;2023-05-29T23:45:15;101639.03;;;24.97;32.23
77739;BME280;66904;59.926;30.404;2023-05-29T23:50:16;101632.75;;;24.96;32.24
77739;BME280;66904;59.926;30.404;2023-05-29T23:55:16;101633.59;;;24.97;32.24
